createdAt,value
2022-10-11T00:03:10.166Z,98671.91
2022-10-11T00:09:53.239Z,98672.16
2022-10-11T00:16:36.696Z,98673.48
2022-10-11T00:23:20.081Z,98676.16
2022-10-11T00:30:05.775Z,98672.45
2022-10-11T00:36:49.270Z,98669.15
2022-10-11T00:43:32.220Z,98665.90
2022-10-11T00:50:24.387Z,98672.87
2022-10-11T00:57:07.540Z,98666.30
2022-10-11T01:03:50.304Z,98665.98
2022-10-11T01:10:33.427Z,98669.83
2022-10-11T01:17:19.479Z,98669.89
2022-10-11T01:24:09.098Z,98676.98
2022-10-11T01:30:56.602Z,98676.71
2022-10-11T01:37:38.250Z,98680.48
2022-10-11T01:44:05.095Z,98676.08
2022-10-11T01:50:14.055Z,98678.84
2022-10-11T01:56:54.819Z,98677.27
2022-10-11T02:03:57.157Z,98678.63
2022-10-11T02:10:48.489Z,98681.73
2022-10-11T02:17:40.109Z,98682.04
2022-10-11T02:24:37.910Z,98674.16
2022-10-11T02:31:20.794Z,98677.55
2022-10-11T02:38:03.333Z,98677.70
2022-10-11T02:44:48.888Z,98687.45
2022-10-11T02:51:12.323Z,98687.66
2022-10-11T02:57:19.799Z,98689.76
2022-10-11T03:04:02.766Z,98694.16
2022-10-11T03:10:45.197Z,98694.82
2022-10-11T03:17:42.837Z,98703.27
2022-10-11T03:24:06.201Z,98710.08
2022-10-11T03:30:49.057Z,98716.05
2022-10-11T03:37:31.629Z,98725.45
2022-10-11T03:44:16.071Z,98728.96
2022-10-11T03:50:59.502Z,98736.63
2022-10-11T03:57:42.518Z,98736.20
2022-10-11T04:04:25.473Z,98739.02
2022-10-11T04:11:10.788Z,98739.44
2022-10-11T04:17:53.713Z,98743.70
2022-10-11T04:24:36.541Z,98745.20
2022-10-11T04:31:00.022Z,98751.17
2022-10-11T04:37:24.667Z,98754.69
2022-10-11T04:44:07.438Z,98757.05
2022-10-11T04:50:37.718Z,98749.45
2022-10-11T04:57:00.787Z,98753.92
2022-10-11T05:03:43.994Z,98757.52
2022-10-11T05:10:27.999Z,98768.29
2022-10-11T05:17:10.248Z,98778.13
2022-10-11T05:22:52.822Z,98783.39
2022-10-11T05:28:16.175Z,98794.05
2022-10-11T05:33:39.389Z,98802.02
2022-10-11T05:39:01.871Z,98812.37
2022-10-11T05:44:23.814Z,98822.89
2022-10-11T05:49:53.848Z,98829.25
2022-10-11T05:55:15.767Z,98834.49
2022-10-11T06:00:38.306Z,98843.10
2022-10-11T06:06:03.318Z,98852.52
2022-10-11T06:11:27.760Z,98855.22
2022-10-11T06:16:49.898Z,98862.14
2022-10-11T06:22:12.788Z,98870.98
2022-10-11T06:27:34.801Z,98880.61
2022-10-11T06:32:58.217Z,98883.08
2022-10-11T06:38:23.215Z,98884.45
2022-10-11T06:43:45.287Z,98889.52
2022-10-11T06:49:07.403Z,98898.58
2022-10-11T06:54:29.037Z,98910.95
2022-10-11T06:59:51.797Z,98916.53
2022-10-11T07:05:13.681Z,98920.77
2022-10-11T07:10:37.111Z,98922.22
2022-10-11T07:16:08.334Z,98923.88
2022-10-11T07:21:33.026Z,98935.69
2022-10-11T07:26:55.079Z,98942.41
2022-10-11T07:32:17.564Z,98946.63
2022-10-11T07:37:39.367Z,98948.81
2022-10-11T07:43:01.140Z,98956.34
2022-10-11T07:48:23.242Z,98965.44
2022-10-11T07:53:48.106Z,98972.03
2022-10-11T07:59:11.044Z,98979.11
2022-10-11T08:04:32.673Z,98981.02
2022-10-11T08:09:54.587Z,98992.85
2022-10-11T08:15:17.089Z,99001.77
2022-10-11T08:20:40.336Z,99004.27
2022-10-11T08:26:03.622Z,99007.24
2022-10-11T08:31:26.040Z,99010.05
2022-10-11T08:36:48.822Z,99013.00
2022-10-11T08:42:42.752Z,99020.59
2022-10-11T08:48:14.092Z,99031.25
2022-10-11T08:53:57.052Z,99033.36
2022-10-11T08:59:47.839Z,99044.71
2022-10-11T09:05:16.146Z,99036.84
2022-10-11T09:11:16.710Z,99045.06
2022-10-11T09:16:49.292Z,99054.00
2022-10-11T09:22:13.948Z,99050.83
2022-10-11T09:28:01.154Z,99054.45
2022-10-11T09:33:28.144Z,99058.27
2022-10-11T09:39:01.818Z,99060.75
2022-10-11T09:44:29.720Z,99066.11
2022-10-11T09:49:57.663Z,99068.52
2022-10-11T09:56:02.977Z,99067.20
2022-10-11T10:01:25.770Z,99073.73
2022-10-11T10:06:49.033Z,99076.31
2022-10-11T10:12:21.091Z,99075.09
2022-10-11T10:17:50.371Z,99075.92
2022-10-11T10:23:29.905Z,99077.45
2022-10-11T10:28:55.077Z,99081.18
2022-10-11T10:34:23.422Z,99081.84
2022-10-11T10:39:51.895Z,99088.20
2022-10-11T10:45:21.595Z,99095.82
2022-10-11T10:50:58.957Z,99094.04
2022-10-11T10:56:34.475Z,99093.41
2022-10-11T11:02:16.023Z,99098.73
2022-10-11T11:07:54.140Z,99096.19
2022-10-11T11:14:00.671Z,99093.83
2022-10-11T11:19:38.178Z,99094.62
2022-10-11T11:25:24.729Z,99092.95
2022-10-11T11:31:09.199Z,99091.39
2022-10-11T11:36:43.716Z,99097.63
2022-10-11T11:42:15.965Z,99094.03
2022-10-11T11:47:44.447Z,99089.55
2022-10-11T11:53:32.815Z,99092.48
2022-10-11T11:59:19.919Z,99092.14
2022-10-11T12:04:46.344Z,99088.27
2022-10-11T12:10:39.893Z,99086.73
2022-10-11T12:16:02.359Z,99076.77
2022-10-11T12:21:33.524Z,99076.19
2022-10-11T12:26:58.731Z,99070.75
2022-10-11T12:32:55.861Z,99073.50
2022-10-11T12:38:21.688Z,99073.38
2022-10-11T12:44:40.351Z,99076.15
2022-10-11T12:50:32.350Z,99074.15
2022-10-11T12:56:26.368Z,99070.63
2022-10-11T13:01:55.543Z,99071.05
2022-10-11T13:07:24.323Z,99077.00
2022-10-11T13:12:48.681Z,99073.92
2022-10-11T13:18:19.652Z,99077.95
2022-10-11T13:23:42.035Z,99074.05
2022-10-11T13:29:12.184Z,99077.35
2022-10-11T13:34:39.523Z,99073.38
2022-10-11T13:40:01.934Z,99073.27
2022-10-11T13:45:27.448Z,99076.19
2022-10-11T13:51:07.252Z,99076.41
2022-10-11T13:56:33.316Z,99083.91
2022-10-11T14:02:04.526Z,99082.41
2022-10-11T14:07:48.538Z,99083.73
2022-10-11T14:14:11.147Z,99084.52
2022-10-11T14:20:54.168Z,99081.35
2022-10-11T14:26:46.003Z,99085.21
2022-10-11T14:32:19.514Z,99087.64
2022-10-11T14:37:41.506Z,99085.59
2022-10-11T14:43:03.649Z,99088.08
2022-10-11T14:48:53.833Z,99095.00
2022-10-11T14:54:08.414Z,99097.11
2022-10-11T14:59:37.136Z,99101.67
2022-10-11T15:04:59.116Z,99103.73
2022-10-11T15:10:27.931Z,99104.12
2022-10-11T15:15:50.249Z,99101.55
2022-10-11T15:21:14.785Z,99108.55
2022-10-11T15:27:37.706Z,99111.52
2022-10-11T15:34:20.645Z,99116.41
2022-10-11T15:41:06.438Z,99123.31
2022-10-11T15:47:49.913Z,99130.14
2022-10-11T15:54:34.037Z,99137.12
2022-10-11T16:01:17.118Z,99143.91
2022-10-11T16:08:11.369Z,99153.45
2022-10-11T16:41:15.680Z,99180.60
2022-10-11T16:48:11.374Z,99187.30
2022-10-11T16:55:01.761Z,99194.99
2022-10-11T17:01:49.713Z,99198.88
2022-10-11T17:08:34.751Z,99200.14
2022-10-11T17:15:18.211Z,99205.06
2022-10-11T17:22:01.612Z,99207.15
2022-10-11T17:28:44.386Z,99208.77
2022-10-11T17:35:29.833Z,99210.74
2022-10-11T17:42:14.313Z,99212.27
2022-10-11T17:49:00.282Z,99213.33
2022-10-11T17:56:00.109Z,99215.51
2022-10-11T18:02:47.123Z,99218.56
2022-10-11T18:09:34.660Z,99219.02
2022-10-11T18:16:18.617Z,99227.22
2022-10-11T18:23:05.877Z,99225.27
2022-10-11T18:29:52.817Z,99225.23
2022-10-11T18:36:47.322Z,99224.86
2022-10-11T18:43:46.854Z,99222.92
2022-10-11T19:03:55.245Z,99226.22
2022-10-11T19:10:39.352Z,99226.09
2022-10-11T19:17:22.966Z,99228.22
2022-10-11T19:24:10.532Z,99226.73
2022-10-11T19:44:37.123Z,99249.10
2022-10-11T19:51:24.830Z,99246.77
2022-10-11T19:58:13.477Z,99254.16
2022-10-11T20:04:59.754Z,99263.59
2022-10-11T20:11:50.357Z,99258.71
2022-10-11T20:18:33.684Z,99254.64
2022-10-11T20:25:16.872Z,99258.59
2022-10-11T20:32:03.809Z,99255.28
2022-10-11T20:38:47.195Z,99260.30
2022-10-11T20:45:32.883Z,99265.39
2022-10-11T20:52:16.217Z,99259.98
2022-10-11T20:58:59.399Z,99260.87
2022-10-11T21:05:42.925Z,99265.36
2022-10-11T21:12:26.300Z,99262.89
2022-10-11T21:19:10.497Z,99262.69
2022-10-11T21:25:54.237Z,99267.45
2022-10-11T21:32:37.673Z,99266.42
2022-10-11T21:39:20.944Z,99267.83
2022-10-11T21:46:05.061Z,99272.13
2022-10-11T21:52:47.128Z,99267.33
2022-10-11T21:58:49.957Z,99275.38
2022-10-11T22:04:32.203Z,99275.71
2022-10-11T22:10:54.453Z,99272.39
2022-10-11T22:17:37.666Z,99264.42
2022-10-11T22:24:21.139Z,99260.37
2022-10-11T22:31:04.585Z,99262.96
2022-10-11T22:36:48.832Z,99263.73
2022-10-11T22:42:53.697Z,99265.55
2022-10-11T22:48:36.469Z,99269.75
2022-10-11T22:54:22.168Z,99271.84
2022-10-11T23:00:05.362Z,99272.48
2022-10-11T23:05:50.442Z,99272.46
2022-10-11T23:11:33.430Z,99274.04
2022-10-11T23:17:17.147Z,99270.72
2022-10-11T23:22:59.460Z,99270.23
2022-10-11T23:29:27.779Z,99269.38
2022-10-11T23:36:16.501Z,99267.61
2022-10-11T23:43:00.135Z,99274.65
2022-10-11T23:49:42.584Z,99266.77
2022-10-11T23:56:22.590Z,99281.66
